This is the latest recevied weather packets stored in our database for station/object NK2J. If no packets are shown the sender has not sent any weather packets the latest 1 day(s).
| Time | Temp. | Humidity | Pressure | Rain* | Wind** | Luminosity | Snow |
|---|---|---|---|---|---|---|---|
| 1778055159 | 15.56° C | 51% | 1015.4 hPa | 0 mm | - | 0 W/m² | - |
| 1778052132 | 16.67° C | 42% | 1015.5 hPa | 0 mm | - | 0 W/m² | - |
| 1778051829 | 16.67° C | 43% | 1015.5 hPa | 0 mm | - | 0 W/m² | - |
| 1778051527 | 16.67° C | 44% | 1015.4 hPa | 0 mm | - | 0 W/m² | - |
| 1778051224 | 16.67° C | 44% | 1015.4 hPa | 0 mm | - | 0 W/m² | - |
| 1778050921 | 16.67° C | 44% | 1015.1 hPa | 0 mm | - | 0 W/m² | - |
| 1778050619 | 16.67° C | 43% | 1015.4 hPa | 0 mm | - | 0 W/m² | - |
| 1778050315 | 16.67° C | 42% | 1015.4 hPa | 0 mm | - | 0 W/m² | - |
| 1778050012 | 17.22° C | 41% | 1015.4 hPa | 0 mm | - | 0 W/m² | - |
| 1778049708 | 17.22° C | 40% | 1015.3 hPa | 0 mm | - | 0 W/m² | - |
| 1778049406 | 17.22° C | 40% | 1015.3 hPa | 0 mm | - | 0 W/m² | - |
| 1778048498 | 17.78° C | 37% | 1015.1 hPa | 0 mm | - | 0 W/m² | - |
| 1778047891 | 17.78° C | 37% | 1014.8 hPa | 0 mm | - | 0 W/m² | - |
| 1778047590 | 18.33° C | 36% | 1014.9 hPa | 0 mm | - | 0 W/m² | - |
| 1778046073 | 18.33° C | 36% | 1014.7 hPa | 0 mm | - | 0 W/m² | - |
| 1778044865 | 18.89° C | 34% | 1014.6 hPa | 0 mm | - | 0 W/m² | - |
| 1778044561 | 19.44° C | 33% | 1014.5 hPa | 0 mm | - | 0 W/m² | - |
| 1778044258 | 20° C | 32% | 1014.7 hPa | 0 mm | - | 0 W/m² | - |
| 1778043956 | 20° C | 31% | 1014.6 hPa | 0 mm | - | 0 W/m² | - |
| 1778043654 | 20° C | 31% | 1014.4 hPa | 0 mm | - | 0 W/m² | - |
| 1778043350 | 20° C | 31% | 1014.4 hPa | 0 mm | - | 0 W/m² | - |
| 1778042745 | 20° C | 30% | 1014.4 hPa | 0 mm | - | 0 W/m² | - |
| 1778042441 | 20.56° C | 30% | 1014.1 hPa | 0 mm | - | 0 W/m² | - |
| 1778042138 | 20.56° C | 30% | 1014.2 hPa | 0 mm | - | 0 W/m² | - |
| 1778041837 | 20.56° C | 29% | 1014.1 hPa | 0 mm | - | 0 W/m² | - |
* Rain latest hour (hover to see other rain measurements)
** Current wind speed in m/s (hover to see current wind gust speed)